John Murtha Johnstown Cambria County Airport Johnstown US
ICAO: KJST
IATA: JST
Category: Medium
Scheduled Services: Yes

Elevation: 2284 ft
TransAlt. 18000 ft.

Airport Communications:
ATIS:118.325
CLEVELAND CNTR:121.2
CTAF:125.75
GND:121.6
KEYSTONE OPS ARNG:36.5
ALTOONA RDO:122.65
TWR:125.75
UNICOM:122.95

KJST Zoom In..

Runways:

(A) RW 05 length 4386 ft width 100 ft
---- / hdg 49

(B) RW 15 length 7003 ft width 150 ft
---- / hdg 154

(C) RW 23 length 4386 ft width 100 ft
---- / hdg 229

(D) RW 33 length 7003 ft width 150 ft
ILS 110.10 / hdg 334

Location; KJST
Day. 08 / Time. 03.54 Zulu
* Altimeter: 29.63
* Temperature: 14° c. 57.2°f.
* Wind from: 200° Speed 09 kn.
Dewpoint: 10° c.
Visibility: 10 Statute Miles.
Clouds: Few 3500 ft.
Clouds: Scattered 8500 ft.
Clouds: Scattered 11000 ft.

KJST 080354Z AUTO 20009KT 10SM -TSRA FEW035 SCT085 SCT110 14/10 A2963 RMK AO2 LTG DSNT E AND S RAB35 TSB46 SLP032 P0000 T01440100


Wind From 200°
Speed 09 kn.

 
 
jpsmedia worldairports.se 2020   terms of use